X  Schlie├čen METAR Luftfahrt Wetterdaten     EDDM Munich Airport
Temperatur
1°C Temperatur
-2°C Taupunkt
81% Feuchtigkeit



Wind
14 km/h
9 mph
4 m/s
8 kts



230°
SW
Aktuelle Wetterlage

Klar Klar
Luftdruck 1031.92 (hPa) - 30.47 (inHg)
Sichtweite 6.2 (Meile) - 10 (km)
Flughafen
Flughafen Code EDDM

Position : Munich Airport
Entfernung: 73 (km)

Metar:
EDDM 290150Z 23008KT CAVOK 01/M02 Q1032 NOSIG

Zeit: 29-01-2022 02:50 CET